Time;durP1;ratioP1;P1;durP2;ratioP2;P2;SDS_P1;SDS_P2;PMS_P1;PMS_P2;Temp;Humidity;BMP_temperature;BMP_pressure;BME280_temperature;BME280_humidity;BME280_pressure;Samples;Min_cycle;Max_cycle;Signal;HPM_P1;HPM_P2
2022/05/23 00:01:23;;;;;;;20.75;9.80;;;14.70;99.90;;;;;;21217326;27;20076;-58
2022/05/23 00:11:26;;;;;;;11.98;8.07;;;14.50;99.90;;;;;;21220700;27;20564;-58
2022/05/23 00:21:29;;;;;;;11.40;8.07;;;14.10;99.90;;;;;;21177819;27;20040;-58
2022/05/23 00:31:32;;;;;;;14.95;10.30;;;13.70;99.90;;;;;;21163641;27;20085;-51
2022/05/23 00:52:09;;;;;;;23.02;14.00;;;13.10;99.90;;;;;;21166456;27;20047;-58
2022/05/23 01:02:13;;;;;;;25.95;15.88;;;12.90;99.90;;;;;;21198296;27;20187;-52
2022/05/23 01:12:17;;;;;;;28.35;19.65;;;12.80;99.90;;;;;;21161297;27;20028;-54
2022/05/23 01:22:28;;;;;;;35.42;20.77;;;12.80;99.90;;;;;;21187113;27;20441;-58
2022/05/23 01:32:32;;;;;;;26.73;17.27;;;13.30;99.90;;;;;;21200069;27;20035;-58
2022/05/23 01:42:35;;;;;;;24.00;16.00;;;13.60;99.90;;;;;;21175393;27;20092;-58
2022/05/23 01:52:39;;;;;;;25.38;16.52;;;14.00;99.90;;;;;;21169873;27;20051;-58
2022/05/23 02:03:15;;;;;;;27.52;16.52;;;14.30;99.90;;;;;;20970846;28;20052;-51
2022/05/23 02:13:18;;;;;;;21.88;15.52;;;14.50;99.90;;;;;;20953747;28;20074;-53
2022/05/23 02:23:21;;;;;;;33.45;21.48;;;14.50;99.90;;;;;;20952853;28;20098;-58
2022/05/23 02:33:26;;;;;;;29.02;19.95;;;14.30;99.90;;;;;;21003430;27;20039;-55
2022/05/23 02:43:44;;;;;;;27.33;19.25;;;14.50;99.90;;;;;;21155956;27;20404;-58
2022/05/23 02:53:51;;;;;;;35.58;24.50;;;14.60;99.90;;;;;;21177709;28;20064;-58
2022/05/23 03:03:56;;;;;;;31.25;22.50;;;14.60;99.90;;;;;;21211183;27;20039;-58
2022/05/23 03:13:59;;;;;;;33.22;22.48;;;14.30;99.90;;;;;;21228581;27;20031;-58
2022/05/23 03:34:25;;;;;;;42.17;24.95;;;14.10;99.90;;;;;;21226542;27;20088;-53
2022/05/23 03:44:28;;;;;;;40.95;25.75;;;14.00;99.90;;;;;;21225990;27;20396;-54
2022/05/23 03:54:31;;;;;;;40.53;26.75;;;14.10;99.90;;;;;;21225104;27;20043;-58
2022/05/23 04:04:34;;;;;;;36.33;24.50;;;14.50;99.90;;;;;;21224257;27;20560;-58
2022/05/23 04:15:15;;;;;;;38.67;24.17;;;14.90;99.90;;;;;;21217726;27;20081;-58
2022/05/23 04:25:17;;;;;;;38.50;24.58;;;15.10;99.90;;;;;;21206783;27;20047;-58
2022/05/23 04:35:22;;;;;;;30.13;22.45;;;15.20;99.90;;;;;;21222563;27;20039;-59
2022/05/23 04:45:27;;;;;;;32.60;21.58;;;15.30;99.90;;;;;;21221136;27;20391;-59
2022/05/23 04:55:47;;;;;;;27.45;19.40;;;15.50;99.90;;;;;;21219142;27;20043;-54
2022/05/23 05:05:50;;;;;;;29.00;20.58;;;15.80;99.90;;;;;;21202485;27;20483;-59
2022/05/23 05:15:57;;;;;;;28.70;19.73;;;16.00;99.90;;;;;;21218955;27;20449;-55
2022/05/23 05:26:05;;;;;;;30.83;21.30;;;16.20;99.90;;;;;;21217721;27;20064;-55
2022/05/23 05:36:21;;;;;;;26.23;19.48;;;16.30;99.90;;;;;;21170993;27;20035;-55
2022/05/23 05:46:46;;;;;;;30.83;18.30;;;16.60;99.90;;;;;;21191022;27;20047;-55
2022/05/23 05:56:57;;;;;;;26.70;17.55;;;17.20;99.90;;;;;;21201720;27;20039;-55
2022/05/23 06:17:42;;;;;;;21.90;17.27;;;18.10;99.90;;;;;;21181286;27;20084;-59
2022/05/23 06:27:45;;;;;;;21.17;16.88;;;18.30;99.90;;;;;;21211911;27;20072;-57
2022/05/23 06:37:51;;;;;;;23.23;14.63;;;18.70;99.90;;;;;;21198120;27;20088;-57
2022/05/23 06:48:15;;;;;;;16.98;14.05;;;19.50;99.90;;;;;;21207840;27;20055;-60
2022/05/23 06:58:26;;;;;;;27.77;16.50;;;19.70;99.90;;;;;;21191269;28;20488;-59
2022/05/23 07:18:54;;;;;;;16.23;12.07;;;19.50;99.90;;;;;;21188726;28;20549;-61
2022/05/23 07:29:08;;;;;;;14.50;10.75;;;20.60;99.90;;;;;;21190621;28;20057;-57
2022/05/23 07:39:12;;;;;;;16.02;12.02;;;20.50;99.90;;;;;;21212124;28;20503;-60
2022/05/23 07:49:23;;;;;;;14.00;11.55;;;20.20;99.90;;;;;;21211851;27;20055;-60
2022/05/23 08:00:38;;;;;;;13.98;11.30;;;20.60;99.90;;;;;;20963846;28;20053;-58
2022/05/23 08:10:27;;;;;;;16.23;12.10;;;22.20;99.90;;;;;;20974699;28;20048;-60
2022/05/23 08:20:32;;;;;;;14.98;11.73;;;22.40;99.90;;;;;;20957959;28;20072;-60
2022/05/23 08:30:34;;;;;;;15.57;10.80;;;21.50;99.90;;;;;;21041860;27;20047;-56
2022/05/23 08:41:15;;;;;;;15.90;11.80;;;20.70;99.90;;;;;;21194402;27;20031;-59
2022/05/23 08:51:40;;;;;;;19.52;13.73;;;20.40;99.90;;;;;;21196176;27;20448;-57
2022/05/23 09:01:52;;;;;;;20.13;14.85;;;20.00;99.90;;;;;;21201006;27;20027;-58
2022/05/23 09:12:05;;;;;;;21.52;13.70;;;20.20;99.90;;;;;;21197393;27;20039;-60
2022/05/23 09:22:20;;;;;;;16.48;13.70;;;20.90;99.90;;;;;;21202098;27;20391;-60
2022/05/23 09:32:27;;;;;;;24.27;15.18;;;20.80;99.90;;;;;;21211252;27;20483;-60
2022/05/23 09:53:01;;;;;;;26.05;18.85;;;20.60;99.90;;;;;;21209608;27;20123;-59
2022/05/23 10:03:13;;;;;;;22.00;17.10;;;20.30;99.90;;;;;;21212857;27;20544;-60
2022/05/23 10:13:35;;;;;;;21.90;17.40;;;19.90;99.90;;;;;;21201510;27;20061;-60
2022/05/23 10:23:39;;;;;;;21.95;17.17;;;20.30;99.90;;;;;;21194415;27;20039;-60
2022/05/23 10:34:14;;;;;;;22.10;17.33;;;20.90;99.90;;;;;;21201829;27;20043;-60
2022/05/23 10:44:29;;;;;;;23.10;18.73;;;21.70;99.90;;;;;;21193715;27;20411;-60
2022/05/23 10:55:06;;;;;;;30.45;22.60;;;22.60;99.90;;;;;;21204938;28;20543;-61
2022/05/23 11:05:27;;;;;;;30.40;22.85;;;22.00;99.90;;;;;;21230252;28;20495;-60
2022/05/23 11:15:29;;;;;;;28.63;24.63;;;22.10;99.90;;;;;;21180775;27;20031;-61
2022/05/23 11:25:44;;;;;;;33.08;27.40;;;21.90;99.90;;;;;;21225783;27;20035;-61
2022/05/23 11:35:48;;;;;;;31.88;27.33;;;21.80;99.90;;;;;;21227033;27;20438;-60
2022/05/23 11:46:00;;;;;;;34.75;28.95;;;22.50;99.90;;;;;;21217426;27;20104;-59
2022/05/23 11:56:07;;;;;;;41.13;31.50;;;21.10;99.90;;;;;;21201180;27;20039;-59
2022/05/23 12:06:17;;;;;;;33.90;27.42;;;20.70;99.90;;;;;;21222377;27;20111;-57
2022/05/23 12:16:37;;;;;;;32.13;25.98;;;21.00;99.90;;;;;;21214625;27;20035;-58
2022/05/23 12:26:40;;;;;;;31.13;23.20;;;22.20;99.90;;;;;;21223563;27;20031;-61
2022/05/23 12:36:51;;;;;;;31.60;25.45;;;23.10;99.90;;;;;;21216674;27;20035;-60
2022/05/23 12:47:16;;;;;;;27.10;23.75;;;22.10;99.90;;;;;;21221535;27;20112;-60
2022/05/23 12:57:39;;;;;;;28.40;22.05;;;22.00;99.90;;;;;;21206810;27;20484;-60
2022/05/23 13:08:09;;;;;;;26.80;22.63;;;21.20;99.90;;;;;;21208017;27;20306;-57
2022/05/23 13:28:43;;;;;;;28.52;22.30;;;20.90;99.90;;;;;;21182601;27;20400;-60
2022/05/23 13:39:05;;;;;;;24.08;18.70;;;21.60;99.90;;;;;;21216792;27;20035;-60
2022/05/23 13:49:33;;;;;;;25.08;19.20;;;22.30;99.90;;;;;;21216427;27;20050;-60
2022/05/23 13:59:42;;;;;;;20.77;18.35;;;22.20;99.90;;;;;;21189993;27;20043;-61
2022/05/23 14:09:51;;;;;;;22.98;20.02;;;23.30;99.90;;;;;;21214994;27;20031;-60
2022/05/23 14:19:56;;;;;;;23.10;18.00;;;23.30;99.90;;;;;;21207180;27;20031;-58
2022/05/23 14:30:17;;;;;;;25.95;19.48;;;22.90;99.90;;;;;;21211293;27;20499;-60
2022/05/23 14:40:41;;;;;;;23.58;19.55;;;22.40;99.90;;;;;;21194071;27;20495;-60
2022/05/23 14:50:55;;;;;;;23.98;19.33;;;22.10;99.90;;;;;;21108553;28;20051;-60
2022/05/23 15:00:58;;;;;;;25.42;19.90;;;21.00;99.90;;;;;;21115639;28;20044;-56
2022/05/23 15:11:02;;;;;;;26.65;20.85;;;20.80;99.90;;;;;;21072135;28;20035;-60
2022/05/23 15:21:06;;;;;;;22.40;18.67;;;20.80;99.90;;;;;;21083528;28;20036;-57
2022/05/23 15:31:18;;;;;;;27.52;20.00;;;20.80;99.90;;;;;;21093743;28;20126;-59
2022/05/23 15:41:21;;;;;;;25.70;20.33;;;20.30;99.90;;;;;;21120220;28;20032;-60
2022/05/23 15:51:23;;;;;;;24.33;19.13;;;20.60;99.90;;;;;;21198519;27;20072;-59
2022/05/23 16:01:28;;;;;;;25.17;18.77;;;20.40;99.90;;;;;;21225920;27;20587;-59
2022/05/23 16:11:39;;;;;;;25.90;19.73;;;20.10;99.90;;;;;;21183683;27;20198;-59
2022/05/23 16:21:43;;;;;;;20.05;16.33;;;19.70;99.90;;;;;;21183573;27;20036;-59
2022/05/23 16:31:49;;;;;;;24.00;16.38;;;19.50;99.90;;;;;;21207625;27;20035;-59
2022/05/23 16:41:51;;;;;;;21.83;14.98;;;19.40;99.90;;;;;;21040165;28;20071;-60
2022/05/23 16:51:54;;;;;;;20.48;13.90;;;19.70;99.90;;;;;;21044175;28;20052;-60
2022/05/23 17:01:59;;;;;;;20.63;14.10;;;19.90;99.90;;;;;;21043040;28;20592;-54
2022/05/23 17:12:03;;;;;;;19.88;14.15;;;19.90;99.90;;;;;;21042354;28;20132;-60
2022/05/23 17:22:09;;;;;;;20.63;13.55;;;19.30;99.90;;;;;;21119329;27;20039;-55
2022/05/23 17:32:11;;;;;;;17.02;13.65;;;18.80;99.90;;;;;;21183242;27;20039;-59
2022/05/23 17:42:15;;;;;;;17.65;13.48;;;18.40;99.90;;;;;;21177672;27;20084;-60
2022/05/23 17:52:17;;;;;;;15.68;11.98;;;18.00;99.90;;;;;;21210214;27;20051;-60
2022/05/23 18:02:22;;;;;;;13.80;10.98;;;17.70;99.90;;;;;;21148476;27;20091;-60
2022/05/23 18:12:25;;;;;;;16.48;10.98;;;17.50;99.90;;;;;;21193405;27;20036;-55
2022/05/23 18:22:27;;;;;;;22.55;12.85;;;17.20;99.90;;;;;;21171767;27;20485;-59
2022/05/23 18:32:30;;;;;;;15.50;12.02;;;16.60;99.90;;;;;;21206232;27;20093;-58
2022/05/23 18:42:33;;;;;;;18.55;13.60;;;16.10;99.90;;;;;;21167871;27;20061;-60
2022/05/23 18:52:36;;;;;;;23.42;14.02;;;15.60;99.90;;;;;;21094382;28;20171;-55
2022/05/23 19:02:42;;;;;;;24.00;15.02;;;15.10;99.90;;;;;;21084253;28;20039;-55
2022/05/23 19:12:45;;;;;;;29.42;16.77;;;14.70;99.90;;;;;;21082495;28;20093;-59
2022/05/23 19:22:49;;;;;;;22.60;16.55;;;14.40;99.90;;;;;;21060544;28;20032;-53
2022/05/23 19:32:52;;;;;;;23.63;16.90;;;14.40;99.90;;;;;;21098368;28;20396;-59
2022/05/23 19:42:55;;;;;;;27.30;16.48;;;14.80;99.90;;;;;;21075538;27;20329;-59
2022/05/23 19:52:58;;;;;;;26.35;17.77;;;15.30;99.90;;;;;;21217440;27;20084;-59
2022/05/23 20:13:24;;;;;;;25.42;17.42;;;15.90;99.90;;;;;;21200675;27;20043;-59
2022/05/23 20:23:29;;;;;;;24.63;16.60;;;16.10;99.90;;;;;;21211712;27;20119;-53
2022/05/23 20:33:32;;;;;;;21.88;15.88;;;16.20;99.90;;;;;;21207459;27;20043;-59
2022/05/23 20:43:35;;;;;;;21.17;15.32;;;16.20;99.90;;;;;;21222169;27;20104;-55
2022/05/23 20:53:37;;;;;;;22.23;15.32;;;16.20;99.90;;;;;;21211422;27;20091;-59
2022/05/23 21:03:39;;;;;;;27.88;16.83;;;16.20;99.90;;;;;;21204480;27;20368;-59
2022/05/23 21:13:43;;;;;;;25.02;16.77;;;16.00;99.90;;;;;;21219964;27;20031;-59
2022/05/23 21:23:45;;;;;;;26.73;18.20;;;15.80;99.90;;;;;;21197104;27;20043;-59
2022/05/23 21:33:48;;;;;;;25.50;17.45;;;15.30;99.90;;;;;;21213072;27;20100;-54
2022/05/23 21:54:11;;;;;;;22.95;14.30;;;14.10;99.90;;;;;;21206004;27;20091;-59
2022/05/23 22:04:15;;;;;;;18.92;12.02;;;13.70;99.90;;;;;;21198344;27;20079;-59
2022/05/23 22:14:21;;;;;;;15.10;9.40;;;13.40;99.90;;;;;;21205857;27;20039;-58
2022/05/23 22:24:24;;;;;;;9.68;6.00;;;13.00;99.90;;;;;;21203412;27;20039;-59
2022/05/23 22:34:26;;;;;;;4.75;3.42;;;12.80;99.90;;;;;;21205767;27;20039;-59
2022/05/23 22:44:29;;;;;;;11.18;4.75;;;12.70;99.90;;;;;;21207902;27;20076;-58
2022/05/23 22:54:32;;;;;;;14.43;6.60;;;12.50;99.90;;;;;;21206931;27;20035;-59
2022/05/23 23:04:37;;;;;;;14.77;8.30;;;12.70;99.90;;;;;;21207997;28;20031;-59
2022/05/23 23:14:41;;;;;;;14.23;9.48;;;13.00;99.90;;;;;;21198324;27;20119;-59
2022/05/23 23:24:43;;;;;;;19.38;10.88;;;13.00;99.90;;;;;;21229185;27;20073;-59
2022/05/23 23:45:08;;;;;;;18.90;11.70;;;12.90;99.90;;;;;;21214624;27;20627;-58
2022/05/23 23:55:11;;;;;;;23.70;14.18;;;12.80;99.90;;;;;;21214791;27;20035;-58
